sensor_id;sensor_type;location;lat;lon;timestamp;P1;durP1;ratioP1;P2;durP2;ratioP2
21266;SDS011;10791;53.108;18.326;2022-12-24T00:03:22;80.10;;;27.27;;
21266;SDS011;10791;53.108;18.326;2022-12-24T00:08:26;59.23;;;23.73;;
21266;SDS011;10791;53.108;18.326;2022-12-24T00:13:29;60.50;;;24.03;;
21266;SDS011;10791;53.108;18.326;2022-12-24T00:18:33;60.17;;;22.23;;
21266;SDS011;10791;53.108;18.326;2022-12-24T00:23:44;57.43;;;25.43;;
21266;SDS011;10791;53.108;18.326;2022-12-24T00:28:48;64.20;;;24.77;;
21266;SDS011;10791;53.108;18.326;2022-12-24T00:33:51;64.93;;;23.93;;
21266;SDS011;10791;53.108;18.326;2022-12-24T00:38:55;66.80;;;23.57;;
21266;SDS011;10791;53.108;18.326;2022-12-24T00:44:00;71.97;;;24.73;;
21266;SDS011;10791;53.108;18.326;2022-12-24T00:49:07;68.73;;;21.60;;
21266;SDS011;10791;53.108;18.326;2022-12-24T00:54:12;51.00;;;20.07;;
21266;SDS011;10791;53.108;18.326;2022-12-24T00:59:16;52.10;;;19.60;;
21266;SDS011;10791;53.108;18.326;2022-12-24T01:04:19;46.13;;;18.90;;
21266;SDS011;10791;53.108;18.326;2022-12-24T01:09:41;55.63;;;19.40;;
21266;SDS011;10791;53.108;18.326;2022-12-24T01:14:45;47.67;;;19.23;;
21266;SDS011;10791;53.108;18.326;2022-12-24T01:19:48;41.70;;;19.73;;
21266;SDS011;10791;53.108;18.326;2022-12-24T01:24:52;46.40;;;19.50;;
21266;SDS011;10791;53.108;18.326;2022-12-24T01:29:55;58.13;;;23.37;;
21266;SDS011;10791;53.108;18.326;2022-12-24T01:34:59;59.40;;;26.17;;
21266;SDS011;10791;53.108;18.326;2022-12-24T01:40:04;52.57;;;21.60;;
21266;SDS011;10791;53.108;18.326;2022-12-24T01:50:39;55.17;;;22.37;;
21266;SDS011;10791;53.108;18.326;2022-12-24T01:55:42;57.13;;;23.80;;
21266;SDS011;10791;53.108;18.326;2022-12-24T02:00:47;47.63;;;21.93;;
21266;SDS011;10791;53.108;18.326;2022-12-24T02:05:52;52.23;;;21.83;;
21266;SDS011;10791;53.108;18.326;2022-12-24T02:10:57;45.37;;;21.47;;
21266;SDS011;10791;53.108;18.326;2022-12-24T02:16:13;40.67;;;20.80;;
21266;SDS011;10791;53.108;18.326;2022-12-24T02:27:00;43.67;;;19.80;;
21266;SDS011;10791;53.108;18.326;2022-12-24T02:32:01;42.53;;;19.00;;
21266;SDS011;10791;53.108;18.326;2022-12-24T02:37:18;34.03;;;17.03;;
21266;SDS011;10791;53.108;18.326;2022-12-24T02:42:29;41.30;;;17.10;;
21266;SDS011;10791;53.108;18.326;2022-12-24T02:47:40;31.87;;;14.13;;
21266;SDS011;10791;53.108;18.326;2022-12-24T02:52:45;25.57;;;13.00;;
21266;SDS011;10791;53.108;18.326;2022-12-24T02:57:59;28.50;;;13.23;;
21266;SDS011;10791;53.108;18.326;2022-12-24T03:03:37;26.07;;;13.27;;
21266;SDS011;10791;53.108;18.326;2022-12-24T03:09:14;23.70;;;11.87;;
21266;SDS011;10791;53.108;18.326;2022-12-24T03:14:35;26.13;;;12.70;;
21266;SDS011;10791;53.108;18.326;2022-12-24T03:19:40;22.80;;;12.40;;
21266;SDS011;10791;53.108;18.326;2022-12-24T03:24:44;19.03;;;10.57;;
21266;SDS011;10791;53.108;18.326;2022-12-24T03:29:48;23.97;;;12.80;;
21266;SDS011;10791;53.108;18.326;2022-12-24T03:34:51;22.27;;;11.23;;
21266;SDS011;10791;53.108;18.326;2022-12-24T03:39:54;30.27;;;12.67;;
21266;SDS011;10791;53.108;18.326;2022-12-24T03:44:58;28.23;;;13.70;;
21266;SDS011;10791;53.108;18.326;2022-12-24T03:50:01;24.47;;;12.70;;
21266;SDS011;10791;53.108;18.326;2022-12-24T03:55:05;29.50;;;12.53;;
21266;SDS011;10791;53.108;18.326;2022-12-24T04:00:09;22.90;;;12.83;;
21266;SDS011;10791;53.108;18.326;2022-12-24T04:05:17;22.50;;;11.87;;
21266;SDS011;10791;53.108;18.326;2022-12-24T04:10:22;22.80;;;11.33;;
21266;SDS011;10791;53.108;18.326;2022-12-24T04:15:25;23.13;;;11.63;;
21266;SDS011;10791;53.108;18.326;2022-12-24T04:20:29;32.27;;;13.40;;
21266;SDS011;10791;53.108;18.326;2022-12-24T04:25:32;23.50;;;11.53;;
21266;SDS011;10791;53.108;18.326;2022-12-24T04:30:39;23.77;;;10.73;;
21266;SDS011;10791;53.108;18.326;2022-12-24T04:35:44;23.03;;;11.50;;
21266;SDS011;10791;53.108;18.326;2022-12-24T04:40:47;20.83;;;12.13;;
21266;SDS011;10791;53.108;18.326;2022-12-24T04:45:50;22.03;;;13.03;;
21266;SDS011;10791;53.108;18.326;2022-12-24T04:50:54;22.60;;;11.13;;
21266;SDS011;10791;53.108;18.326;2022-12-24T04:55:58;26.03;;;13.20;;
21266;SDS011;10791;53.108;18.326;2022-12-24T05:01:02;27.17;;;14.13;;
21266;SDS011;10791;53.108;18.326;2022-12-24T05:06:11;26.07;;;13.53;;
21266;SDS011;10791;53.108;18.326;2022-12-24T05:11:18;26.50;;;13.43;;
21266;SDS011;10791;53.108;18.326;2022-12-24T05:16:22;26.70;;;13.57;;
21266;SDS011;10791;53.108;18.326;2022-12-24T05:21:26;26.07;;;13.40;;
21266;SDS011;10791;53.108;18.326;2022-12-24T05:26:30;28.17;;;12.97;;
21266;SDS011;10791;53.108;18.326;2022-12-24T05:31:35;28.33;;;13.93;;
21266;SDS011;10791;53.108;18.326;2022-12-24T05:36:42;23.00;;;13.03;;
21266;SDS011;10791;53.108;18.326;2022-12-24T05:41:46;20.37;;;9.73;;
21266;SDS011;10791;53.108;18.326;2022-12-24T05:46:49;31.20;;;13.63;;
21266;SDS011;10791;53.108;18.326;2022-12-24T05:51:53;20.10;;;12.23;;
21266;SDS011;10791;53.108;18.326;2022-12-24T05:56:56;21.27;;;12.10;;
21266;SDS011;10791;53.108;18.326;2022-12-24T06:02:00;22.17;;;11.83;;
21266;SDS011;10791;53.108;18.326;2022-12-24T06:07:03;25.70;;;12.00;;
21266;SDS011;10791;53.108;18.326;2022-12-24T06:12:07;23.17;;;13.70;;
21266;SDS011;10791;53.108;18.326;2022-12-24T06:17:10;23.43;;;11.53;;
21266;SDS011;10791;53.108;18.326;2022-12-24T06:22:14;25.40;;;11.80;;
21266;SDS011;10791;53.108;18.326;2022-12-24T06:27:17;25.20;;;12.47;;
21266;SDS011;10791;53.108;18.326;2022-12-24T06:32:21;25.20;;;12.50;;
21266;SDS011;10791;53.108;18.326;2022-12-24T06:37:24;21.47;;;11.27;;
21266;SDS011;10791;53.108;18.326;2022-12-24T06:42:27;21.80;;;11.47;;
21266;SDS011;10791;53.108;18.326;2022-12-24T06:47:31;24.27;;;10.30;;
21266;SDS011;10791;53.108;18.326;2022-12-24T06:52:34;26.40;;;11.27;;
21266;SDS011;10791;53.108;18.326;2022-12-24T06:57:38;21.80;;;11.43;;
21266;SDS011;10791;53.108;18.326;2022-12-24T07:02:42;19.93;;;10.07;;
21266;SDS011;10791;53.108;18.326;2022-12-24T07:07:46;21.70;;;10.57;;
21266;SDS011;10791;53.108;18.326;2022-12-24T07:12:50;19.73;;;10.63;;
21266;SDS011;10791;53.108;18.326;2022-12-24T07:17:53;23.33;;;11.37;;
21266;SDS011;10791;53.108;18.326;2022-12-24T07:22:56;21.40;;;9.87;;
21266;SDS011;10791;53.108;18.326;2022-12-24T07:27:59;20.17;;;11.20;;
21266;SDS011;10791;53.108;18.326;2022-12-24T07:33:03;22.33;;;11.03;;
21266;SDS011;10791;53.108;18.326;2022-12-24T07:38:07;24.23;;;12.90;;
21266;SDS011;10791;53.108;18.326;2022-12-24T07:43:11;24.87;;;12.20;;
21266;SDS011;10791;53.108;18.326;2022-12-24T07:48:15;25.80;;;12.87;;
21266;SDS011;10791;53.108;18.326;2022-12-24T07:53:18;27.60;;;13.10;;
21266;SDS011;10791;53.108;18.326;2022-12-24T07:58:22;24.47;;;11.50;;
21266;SDS011;10791;53.108;18.326;2022-12-24T08:03:26;21.93;;;11.67;;
21266;SDS011;10791;53.108;18.326;2022-12-24T08:08:30;22.87;;;12.80;;
21266;SDS011;10791;53.108;18.326;2022-12-24T08:13:34;25.47;;;11.27;;
21266;SDS011;10791;53.108;18.326;2022-12-24T08:18:37;19.03;;;11.33;;
21266;SDS011;10791;53.108;18.326;2022-12-24T08:23:41;23.87;;;11.93;;
21266;SDS011;10791;53.108;18.326;2022-12-24T08:28:44;22.23;;;10.23;;
21266;SDS011;10791;53.108;18.326;2022-12-24T08:33:47;24.83;;;11.70;;
21266;SDS011;10791;53.108;18.326;2022-12-24T08:38:51;21.67;;;11.27;;
21266;SDS011;10791;53.108;18.326;2022-12-24T08:43:54;24.47;;;11.53;;
21266;SDS011;10791;53.108;18.326;2022-12-24T08:48:57;20.20;;;10.30;;
21266;SDS011;10791;53.108;18.326;2022-12-24T08:54:01;22.47;;;11.77;;
21266;SDS011;10791;53.108;18.326;2022-12-24T08:59:04;23.23;;;12.17;;
21266;SDS011;10791;53.108;18.326;2022-12-24T09:04:08;24.03;;;13.57;;
21266;SDS011;10791;53.108;18.326;2022-12-24T09:09:11;29.53;;;14.73;;
21266;SDS011;10791;53.108;18.326;2022-12-24T09:14:15;28.23;;;13.73;;
21266;SDS011;10791;53.108;18.326;2022-12-24T09:19:19;22.77;;;12.20;;
21266;SDS011;10791;53.108;18.326;2022-12-24T09:24:32;24.53;;;13.70;;
21266;SDS011;10791;53.108;18.326;2022-12-24T09:29:37;25.83;;;14.97;;
21266;SDS011;10791;53.108;18.326;2022-12-24T09:34:43;20.73;;;9.97;;
21266;SDS011;10791;53.108;18.326;2022-12-24T09:39:46;32.73;;;15.40;;
21266;SDS011;10791;53.108;18.326;2022-12-24T09:45:02;25.23;;;14.03;;
21266;SDS011;10791;53.108;18.326;2022-12-24T09:56:47;25.67;;;12.40;;
21266;SDS011;10791;53.108;18.326;2022-12-24T10:01:52;35.83;;;16.23;;
21266;SDS011;10791;53.108;18.326;2022-12-24T10:07:47;32.17;;;16.70;;
21266;SDS011;10791;53.108;18.326;2022-12-24T10:23:41;34.87;;;17.53;;
21266;SDS011;10791;53.108;18.326;2022-12-24T10:29:10;30.13;;;15.27;;
21266;SDS011;10791;53.108;18.326;2022-12-24T10:34:29;36.63;;;15.27;;
21266;SDS011;10791;53.108;18.326;2022-12-24T10:39:36;33.70;;;15.70;;
21266;SDS011;10791;53.108;18.326;2022-12-24T10:44:40;36.93;;;17.47;;
21266;SDS011;10791;53.108;18.326;2022-12-24T10:49:44;33.33;;;17.43;;
21266;SDS011;10791;53.108;18.326;2022-12-24T11:00:22;30.17;;;15.10;;
21266;SDS011;10791;53.108;18.326;2022-12-24T11:05:34;30.03;;;15.30;;
21266;SDS011;10791;53.108;18.326;2022-12-24T11:10:40;33.90;;;17.40;;
21266;SDS011;10791;53.108;18.326;2022-12-24T11:15:46;35.93;;;18.03;;
21266;SDS011;10791;53.108;18.326;2022-12-24T11:20:54;34.50;;;17.53;;
21266;SDS011;10791;53.108;18.326;2022-12-24T11:26:01;28.77;;;15.60;;
21266;SDS011;10791;53.108;18.326;2022-12-24T11:31:15;27.23;;;14.70;;
21266;SDS011;10791;53.108;18.326;2022-12-24T11:36:22;33.40;;;17.50;;
21266;SDS011;10791;53.108;18.326;2022-12-24T11:41:34;31.77;;;16.80;;
21266;SDS011;10791;53.108;18.326;2022-12-24T11:46:40;31.83;;;16.47;;
21266;SDS011;10791;53.108;18.326;2022-12-24T11:57:14;36.23;;;17.60;;
21266;SDS011;10791;53.108;18.326;2022-12-24T12:07:33;38.40;;;18.27;;
21266;SDS011;10791;53.108;18.326;2022-12-24T12:12:43;31.80;;;17.50;;
21266;SDS011;10791;53.108;18.326;2022-12-24T12:23:32;32.43;;;17.40;;
21266;SDS011;10791;53.108;18.326;2022-12-24T12:33:53;37.03;;;19.97;;
21266;SDS011;10791;53.108;18.326;2022-12-24T12:38:58;32.63;;;16.90;;
21266;SDS011;10791;53.108;18.326;2022-12-24T12:44:10;35.67;;;16.30;;
21266;SDS011;10791;53.108;18.326;2022-12-24T13:00:36;32.67;;;18.30;;
21266;SDS011;10791;53.108;18.326;2022-12-24T13:11:43;28.63;;;15.80;;
21266;SDS011;10791;53.108;18.326;2022-12-24T13:17:15;33.63;;;14.97;;
21266;SDS011;10791;53.108;18.326;2022-12-24T13:22:47;34.30;;;17.60;;
21266;SDS011;10791;53.108;18.326;2022-12-24T13:44:13;40.67;;;20.53;;
21266;SDS011;10791;53.108;18.326;2022-12-24T13:49:29;45.67;;;22.37;;
21266;SDS011;10791;53.108;18.326;2022-12-24T13:54:39;46.93;;;23.50;;
21266;SDS011;10791;53.108;18.326;2022-12-24T14:00:06;47.53;;;22.30;;
21266;SDS011;10791;53.108;18.326;2022-12-24T14:05:29;43.57;;;22.30;;
21266;SDS011;10791;53.108;18.326;2022-12-24T14:10:41;45.53;;;22.67;;
21266;SDS011;10791;53.108;18.326;2022-12-24T14:16:01;42.90;;;23.63;;
21266;SDS011;10791;53.108;18.326;2022-12-24T14:21:11;44.30;;;22.73;;
21266;SDS011;10791;53.108;18.326;2022-12-24T14:26:31;53.07;;;23.83;;
21266;SDS011;10791;53.108;18.326;2022-12-24T14:31:48;44.20;;;23.40;;
21266;SDS011;10791;53.108;18.326;2022-12-24T14:37:01;46.83;;;22.93;;
21266;SDS011;10791;53.108;18.326;2022-12-24T14:47:53;49.33;;;26.03;;
21266;SDS011;10791;53.108;18.326;2022-12-24T14:53:12;48.57;;;26.63;;
21266;SDS011;10791;53.108;18.326;2022-12-24T14:58:39;48.90;;;25.70;;
21266;SDS011;10791;53.108;18.326;2022-12-24T15:03:44;52.20;;;26.47;;
21266;SDS011;10791;53.108;18.326;2022-12-24T15:08:50;84.83;;;36.23;;
21266;SDS011;10791;53.108;18.326;2022-12-24T15:13:57;169.20;;;48.67;;
21266;SDS011;10791;53.108;18.326;2022-12-24T15:19:06;69.53;;;30.23;;
21266;SDS011;10791;53.108;18.326;2022-12-24T15:24:29;51.63;;;25.80;;
21266;SDS011;10791;53.108;18.326;2022-12-24T15:29:38;54.90;;;27.83;;
21266;SDS011;10791;53.108;18.326;2022-12-24T15:34:47;54.50;;;28.27;;
21266;SDS011;10791;53.108;18.326;2022-12-24T15:45:20;104.67;;;38.60;;
21266;SDS011;10791;53.108;18.326;2022-12-24T15:50:30;99.27;;;38.10;;
21266;SDS011;10791;53.108;18.326;2022-12-24T15:55:40;74.63;;;31.47;;
21266;SDS011;10791;53.108;18.326;2022-12-24T16:01:00;62.07;;;29.63;;
21266;SDS011;10791;53.108;18.326;2022-12-24T16:06:07;56.20;;;26.50;;
21266;SDS011;10791;53.108;18.326;2022-12-24T16:16:32;54.03;;;27.17;;
21266;SDS011;10791;53.108;18.326;2022-12-24T16:21:39;59.40;;;26.63;;
21266;SDS011;10791;53.108;18.326;2022-12-24T16:26:44;53.80;;;27.70;;
21266;SDS011;10791;53.108;18.326;2022-12-24T16:31:54;55.87;;;27.20;;
21266;SDS011;10791;53.108;18.326;2022-12-24T16:36:59;54.53;;;25.47;;
21266;SDS011;10791;53.108;18.326;2022-12-24T16:42:03;50.70;;;26.33;;
21266;SDS011;10791;53.108;18.326;2022-12-24T16:47:30;49.97;;;28.27;;
21266;SDS011;10791;53.108;18.326;2022-12-24T16:52:43;86.93;;;37.67;;
21266;SDS011;10791;53.108;18.326;2022-12-24T16:57:47;62.90;;;30.53;;
21266;SDS011;10791;53.108;18.326;2022-12-24T17:02:50;54.67;;;28.77;;
21266;SDS011;10791;53.108;18.326;2022-12-24T17:07:58;71.07;;;36.43;;
21266;SDS011;10791;53.108;18.326;2022-12-24T17:13:02;56.83;;;32.30;;
21266;SDS011;10791;53.108;18.326;2022-12-24T17:18:06;57.53;;;29.33;;
21266;SDS011;10791;53.108;18.326;2022-12-24T17:23:09;57.70;;;30.60;;
21266;SDS011;10791;53.108;18.326;2022-12-24T17:28:13;58.63;;;29.83;;
21266;SDS011;10791;53.108;18.326;2022-12-24T17:33:19;66.80;;;33.47;;
21266;SDS011;10791;53.108;18.326;2022-12-24T17:38:22;64.17;;;33.17;;
21266;SDS011;10791;53.108;18.326;2022-12-24T17:43:25;72.33;;;37.87;;
21266;SDS011;10791;53.108;18.326;2022-12-24T17:48:29;69.60;;;31.97;;
21266;SDS011;10791;53.108;18.326;2022-12-24T17:53:36;67.33;;;32.37;;
21266;SDS011;10791;53.108;18.326;2022-12-24T17:58:41;61.03;;;30.60;;
21266;SDS011;10791;53.108;18.326;2022-12-24T18:03:47;60.00;;;31.03;;
21266;SDS011;10791;53.108;18.326;2022-12-24T18:08:53;62.00;;;32.97;;
21266;SDS011;10791;53.108;18.326;2022-12-24T18:13:57;60.47;;;31.07;;
21266;SDS011;10791;53.108;18.326;2022-12-24T18:19:03;66.37;;;33.00;;
21266;SDS011;10791;53.108;18.326;2022-12-24T18:24:08;77.17;;;38.10;;
21266;SDS011;10791;53.108;18.326;2022-12-24T18:29:13;63.23;;;34.30;;
21266;SDS011;10791;53.108;18.326;2022-12-24T18:34:18;68.70;;;33.17;;
21266;SDS011;10791;53.108;18.326;2022-12-24T18:39:21;67.53;;;34.03;;
21266;SDS011;10791;53.108;18.326;2022-12-24T18:44:25;66.33;;;33.60;;
21266;SDS011;10791;53.108;18.326;2022-12-24T18:49:28;74.97;;;35.57;;
21266;SDS011;10791;53.108;18.326;2022-12-24T18:54:32;68.57;;;35.43;;
21266;SDS011;10791;53.108;18.326;2022-12-24T18:59:35;77.97;;;38.07;;
21266;SDS011;10791;53.108;18.326;2022-12-24T19:04:40;69.87;;;36.50;;
21266;SDS011;10791;53.108;18.326;2022-12-24T19:09:44;67.97;;;34.07;;
21266;SDS011;10791;53.108;18.326;2022-12-24T19:14:49;71.13;;;34.20;;
21266;SDS011;10791;53.108;18.326;2022-12-24T19:19:54;69.93;;;35.23;;
21266;SDS011;10791;53.108;18.326;2022-12-24T19:24:57;62.83;;;36.90;;
21266;SDS011;10791;53.108;18.326;2022-12-24T19:30:02;62.07;;;33.17;;
21266;SDS011;10791;53.108;18.326;2022-12-24T19:35:06;70.67;;;36.27;;
21266;SDS011;10791;53.108;18.326;2022-12-24T19:40:10;70.23;;;35.93;;
21266;SDS011;10791;53.108;18.326;2022-12-24T19:45:14;71.30;;;36.17;;
21266;SDS011;10791;53.108;18.326;2022-12-24T19:50:18;74.47;;;36.87;;
21266;SDS011;10791;53.108;18.326;2022-12-24T19:55:22;73.07;;;36.37;;
21266;SDS011;10791;53.108;18.326;2022-12-24T20:00:27;66.00;;;34.60;;
21266;SDS011;10791;53.108;18.326;2022-12-24T20:05:30;70.77;;;37.60;;
21266;SDS011;10791;53.108;18.326;2022-12-24T20:10:41;63.70;;;31.73;;
21266;SDS011;10791;53.108;18.326;2022-12-24T20:15:47;55.40;;;29.87;;
21266;SDS011;10791;53.108;18.326;2022-12-24T20:20:51;53.33;;;29.10;;
21266;SDS011;10791;53.108;18.326;2022-12-24T20:25:55;56.67;;;28.80;;
21266;SDS011;10791;53.108;18.326;2022-12-24T20:31:01;69.43;;;31.97;;
21266;SDS011;10791;53.108;18.326;2022-12-24T20:36:16;70.37;;;33.73;;
21266;SDS011;10791;53.108;18.326;2022-12-24T20:41:24;53.63;;;28.87;;
21266;SDS011;10791;53.108;18.326;2022-12-24T20:46:29;51.73;;;25.87;;
21266;SDS011;10791;53.108;18.326;2022-12-24T20:51:33;54.27;;;26.70;;
21266;SDS011;10791;53.108;18.326;2022-12-24T20:56:37;47.40;;;24.90;;
21266;SDS011;10791;53.108;18.326;2022-12-24T21:01:43;44.90;;;25.43;;
21266;SDS011;10791;53.108;18.326;2022-12-24T21:06:46;47.27;;;24.40;;
21266;SDS011;10791;53.108;18.326;2022-12-24T21:11:50;50.33;;;25.40;;
21266;SDS011;10791;53.108;18.326;2022-12-24T21:16:54;42.17;;;23.90;;
21266;SDS011;10791;53.108;18.326;2022-12-24T21:21:59;49.50;;;24.87;;
21266;SDS011;10791;53.108;18.326;2022-12-24T21:27:04;47.97;;;26.47;;
21266;SDS011;10791;53.108;18.326;2022-12-24T21:32:09;49.07;;;23.83;;
21266;SDS011;10791;53.108;18.326;2022-12-24T21:37:14;54.87;;;26.50;;
21266;SDS011;10791;53.108;18.326;2022-12-24T21:42:18;58.87;;;28.23;;
21266;SDS011;10791;53.108;18.326;2022-12-24T21:47:22;56.97;;;27.23;;
21266;SDS011;10791;53.108;18.326;2022-12-24T21:52:28;55.50;;;27.33;;
21266;SDS011;10791;53.108;18.326;2022-12-24T21:57:32;56.50;;;26.57;;
21266;SDS011;10791;53.108;18.326;2022-12-24T22:02:56;55.13;;;28.10;;
21266;SDS011;10791;53.108;18.326;2022-12-24T22:08:00;58.90;;;27.30;;
21266;SDS011;10791;53.108;18.326;2022-12-24T22:13:24;59.10;;;27.93;;
21266;SDS011;10791;53.108;18.326;2022-12-24T22:18:31;72.60;;;32.17;;
21266;SDS011;10791;53.108;18.326;2022-12-24T22:23:36;72.73;;;30.33;;
21266;SDS011;10791;53.108;18.326;2022-12-24T22:28:44;66.33;;;28.20;;
21266;SDS011;10791;53.108;18.326;2022-12-24T22:33:48;98.70;;;37.40;;
21266;SDS011;10791;53.108;18.326;2022-12-24T22:38:51;53.07;;;25.27;;
21266;SDS011;10791;53.108;18.326;2022-12-24T22:43:55;49.27;;;25.30;;
21266;SDS011;10791;53.108;18.326;2022-12-24T22:48:59;46.00;;;22.40;;
21266;SDS011;10791;53.108;18.326;2022-12-24T22:54:04;46.47;;;22.10;;
21266;SDS011;10791;53.108;18.326;2022-12-24T22:59:08;46.63;;;21.53;;
21266;SDS011;10791;53.108;18.326;2022-12-24T23:04:15;45.27;;;22.10;;
21266;SDS011;10791;53.108;18.326;2022-12-24T23:09:18;47.10;;;21.10;;
21266;SDS011;10791;53.108;18.326;2022-12-24T23:14:22;43.23;;;21.27;;
21266;SDS011;10791;53.108;18.326;2022-12-24T23:19:44;35.63;;;19.20;;
21266;SDS011;10791;53.108;18.326;2022-12-24T23:24:47;40.30;;;19.37;;
21266;SDS011;10791;53.108;18.326;2022-12-24T23:29:50;40.33;;;19.20;;
21266;SDS011;10791;53.108;18.326;2022-12-24T23:34:53;41.37;;;19.50;;
21266;SDS011;10791;53.108;18.326;2022-12-24T23:39:57;39.83;;;19.83;;
21266;SDS011;10791;53.108;18.326;2022-12-24T23:45:00;132.33;;;42.03;;
21266;SDS011;10791;53.108;18.326;2022-12-24T23:50:04;45.03;;;20.47;;
21266;SDS011;10791;53.108;18.326;2022-12-24T23:55:07;42.07;;;19.73;;
